createdAt,value
2023-05-02T00:00:09.064Z,3.53
2023-05-02T00:02:38.367Z,3.90
2023-05-02T00:05:07.183Z,4.00
2023-05-02T00:07:35.375Z,4.40
2023-05-02T00:10:03.431Z,4.83
2023-05-02T00:12:31.242Z,4.30
2023-05-02T00:14:59.060Z,4.63
2023-05-02T00:17:27.108Z,3.90
2023-05-02T00:19:56.630Z,3.67
2023-05-02T00:22:24.502Z,3.93
2023-05-02T00:24:57.009Z,3.83
2023-05-02T00:27:24.861Z,3.73
2023-05-02T00:29:53.287Z,4.00
2023-05-02T00:32:21.100Z,3.93
2023-05-02T00:34:48.923Z,4.67
2023-05-02T00:37:18.103Z,5.07
2023-05-02T00:39:46.605Z,4.53
2023-05-02T00:42:22.750Z,4.33
2023-05-02T00:44:50.773Z,4.20
2023-05-02T00:47:18.565Z,4.00
2023-05-02T00:49:46.395Z,3.87
2023-05-02T00:52:14.229Z,3.83
2023-05-02T00:54:44.682Z,3.40
2023-05-02T00:57:12.529Z,3.10
2023-05-02T00:59:40.727Z,3.83
2023-05-02T01:02:21.494Z,4.07
2023-05-02T01:05:00.215Z,4.80
2023-05-02T01:07:42.596Z,4.50
2023-05-02T01:10:22.668Z,4.33
2023-05-02T01:12:59.439Z,4.70
2023-05-02T01:15:28.417Z,4.10
2023-05-02T01:17:57.682Z,4.27
2023-05-02T01:20:28.706Z,4.00
2023-05-02T01:23:01.517Z,4.20
2023-05-02T01:25:37.984Z,4.90
2023-05-02T01:28:15.745Z,5.70
2023-05-02T01:30:50.129Z,5.47
2023-05-02T01:33:19.653Z,6.03
2023-05-02T01:35:51.277Z,6.37
2023-05-02T01:38:21.003Z,7.00
2023-05-02T01:40:51.454Z,7.70
2023-05-02T01:43:21.928Z,7.20
2023-05-02T01:45:53.898Z,7.40
2023-05-02T01:48:23.004Z,8.10
2023-05-02T01:50:52.799Z,7.77
2023-05-02T01:53:22.473Z,7.57
2023-05-02T01:55:51.740Z,7.53
2023-05-02T01:58:21.551Z,7.80
2023-05-02T02:00:52.014Z,7.40
2023-05-02T02:03:20.978Z,7.37
2023-05-02T02:05:50.611Z,7.20
2023-05-02T02:08:18.445Z,7.43
2023-05-02T02:10:51.061Z,7.10
2023-05-02T02:13:20.907Z,7.00
2023-05-02T02:15:52.088Z,7.70
2023-05-02T02:18:22.564Z,7.93
2023-05-02T02:20:51.777Z,7.67
2023-05-02T02:23:22.848Z,8.13
2023-05-02T02:25:53.186Z,9.13
2023-05-02T02:28:21.051Z,7.97
2023-05-02T02:30:48.920Z,8.57
2023-05-02T02:33:18.296Z,8.73
2023-05-02T02:35:53.042Z,8.23
2023-05-02T02:38:31.728Z,8.17
2023-05-02T02:41:12.034Z,8.30
2023-05-02T02:43:53.710Z,8.13
2023-05-02T02:46:35.596Z,8.53
2023-05-02T02:49:18.091Z,8.60
2023-05-02T02:51:51.681Z,8.30
2023-05-02T02:54:27.112Z,8.83
2023-05-02T02:57:02.732Z,9.07
2023-05-02T02:59:34.798Z,8.47
2023-05-02T03:02:08.267Z,8.70
2023-05-02T03:04:39.821Z,8.67
2023-05-02T03:07:08.735Z,8.53
2023-05-02T03:09:46.640Z,9.33
2023-05-02T03:12:15.251Z,8.23
2023-05-02T03:14:43.585Z,9.70
2023-05-02T03:17:11.474Z,9.07
2023-05-02T03:19:41.017Z,9.20
2023-05-02T03:22:08.841Z,9.93
2023-05-02T03:24:36.642Z,9.00
2023-05-02T03:27:04.568Z,10.10
2023-05-02T03:29:32.433Z,9.00
2023-05-02T03:32:00.338Z,8.53
2023-05-02T03:34:28.263Z,8.90
2023-05-02T03:36:57.387Z,8.43
2023-05-02T03:39:25.245Z,8.73
2023-05-02T03:41:53.541Z,9.27
2023-05-02T03:44:21.403Z,8.60
2023-05-02T03:46:49.367Z,8.80
2023-05-02T03:49:17.667Z,8.37
2023-05-02T03:51:45.472Z,8.90
2023-05-02T03:54:14.620Z,8.97
2023-05-02T03:56:42.950Z,9.07
2023-05-02T03:59:10.830Z,9.97
2023-05-02T04:01:38.726Z,9.67
2023-05-02T04:04:06.736Z,9.07
2023-05-02T04:06:34.623Z,9.43
2023-05-02T04:09:02.450Z,10.00
2023-05-02T04:11:31.590Z,9.23
2023-05-02T04:13:59.393Z,9.13
2023-05-02T04:16:27.281Z,9.83
2023-05-02T04:18:55.168Z,10.87
2023-05-02T04:21:23.087Z,10.57
2023-05-02T04:23:50.924Z,9.37
2023-05-02T04:26:18.747Z,8.67
2023-05-02T04:28:47.910Z,10.20
2023-05-02T04:31:16.099Z,9.90
2023-05-02T04:33:44.008Z,8.80
2023-05-02T04:36:11.904Z,9.37
2023-05-02T04:38:39.710Z,8.93
2023-05-02T04:41:09.037Z,9.37
2023-05-02T04:43:37.569Z,9.00
2023-05-02T04:46:06.947Z,9.10
2023-05-02T04:48:34.820Z,9.37
2023-05-02T04:51:02.688Z,9.80
2023-05-02T04:53:30.465Z,8.93
2023-05-02T04:55:58.664Z,8.20
2023-05-02T04:58:26.478Z,8.10
2023-05-02T05:00:54.872Z,8.67
2023-05-02T05:03:24.650Z,8.93
2023-05-02T05:05:52.610Z,8.77
2023-05-02T05:08:20.465Z,8.50
2023-05-02T05:10:48.352Z,9.10
2023-05-02T05:13:16.186Z,8.53
2023-05-02T05:15:44.542Z,9.23
2023-05-02T05:18:12.578Z,9.63
2023-05-02T05:20:41.765Z,8.47
2023-05-02T05:23:09.621Z,8.67
2023-05-02T05:25:37.431Z,8.47
2023-05-02T05:28:05.295Z,8.63
2023-05-02T05:30:33.169Z,8.63
2023-05-02T05:33:01.153Z,8.20
2023-05-02T05:35:29.110Z,8.47
2023-05-02T05:37:58.344Z,8.20
2023-05-02T05:40:26.281Z,8.37
2023-05-02T05:42:54.114Z,8.83
2023-05-02T05:45:22.678Z,8.17
2023-05-02T05:47:50.577Z,45.53
2023-05-02T05:50:18.535Z,15.57
2023-05-02T05:52:46.324Z,8.33
2023-05-02T05:55:16.261Z,6.73
2023-05-02T05:57:44.078Z,9.50
2023-05-02T06:00:13.158Z,8.33
2023-05-02T06:02:41.049Z,7.43
2023-05-02T06:05:09.588Z,7.47
2023-05-02T06:07:37.395Z,7.27
2023-05-02T06:10:06.410Z,7.10
2023-05-02T06:12:35.524Z,6.23
2023-05-02T06:15:03.440Z,7.00
2023-05-02T06:17:31.390Z,6.47
2023-05-02T06:19:59.389Z,6.67
2023-05-02T06:22:27.462Z,7.33
2023-05-02T06:24:55.808Z,6.87
2023-05-02T06:27:23.654Z,7.13
2023-05-02T06:29:53.890Z,7.27
2023-05-02T06:32:21.736Z,11.33
2023-05-02T06:34:49.598Z,9.57
2023-05-02T06:37:17.407Z,12.43
2023-05-02T06:39:45.241Z,8.83
2023-05-02T06:42:13.100Z,7.43
2023-05-02T06:44:40.962Z,7.17
2023-05-02T06:47:10.179Z,9.03
2023-05-02T06:49:38.097Z,7.67
2023-05-02T06:52:05.945Z,9.33
2023-05-02T06:54:33.787Z,9.37
2023-05-02T06:57:02.164Z,6.80
2023-05-02T06:59:30.017Z,6.17
2023-05-02T07:01:57.830Z,7.03
2023-05-02T07:04:29.882Z,6.33
2023-05-02T07:06:57.756Z,6.60
2023-05-02T07:09:25.746Z,6.63
2023-05-02T07:11:53.536Z,5.77
2023-05-02T07:14:21.607Z,6.37
2023-05-02T07:16:49.574Z,6.47
2023-05-02T07:19:17.460Z,6.53
2023-05-02T07:21:46.596Z,6.53
2023-05-02T07:24:14.396Z,6.77
2023-05-02T07:26:42.378Z,6.77
2023-05-02T07:29:10.265Z,6.77
2023-05-02T07:31:38.408Z,6.27
2023-05-02T07:34:06.358Z,6.27
2023-05-02T07:36:34.228Z,7.63
2023-05-02T07:39:03.419Z,7.03
2023-05-02T07:41:31.247Z,7.10
2023-05-02T07:43:59.075Z,6.90
2023-05-02T07:46:27.052Z,6.77
2023-05-02T07:48:54.946Z,7.50
2023-05-02T07:51:22.739Z,9.33
2023-05-02T07:53:53.016Z,8.47
2023-05-02T07:56:22.359Z,8.13
2023-05-02T07:58:51.512Z,9.27
2023-05-02T08:01:19.704Z,9.50
2023-05-02T08:03:48.145Z,7.63
2023-05-02T08:06:16.177Z,8.27
2023-05-02T08:08:44.058Z,8.80
2023-05-02T08:11:11.857Z,9.47
2023-05-02T08:13:41.032Z,9.87
2023-05-02T08:16:09.095Z,10.07
2023-05-02T08:18:36.988Z,10.20
2023-05-02T08:21:05.380Z,10.40
2023-05-02T08:23:33.238Z,9.73
2023-05-02T08:26:01.088Z,10.97
2023-05-02T08:28:28.909Z,12.07
2023-05-02T08:30:58.209Z,10.47
2023-05-02T08:33:26.498Z,10.97
2023-05-02T08:35:54.282Z,10.97
2023-05-02T08:38:22.141Z,11.30
2023-05-02T08:40:49.991Z,10.40
2023-05-02T08:43:18.220Z,10.13
2023-05-02T08:45:46.636Z,10.73
2023-05-02T08:48:17.921Z,10.87
2023-05-02T08:50:48.366Z,10.60
2023-05-02T08:53:16.565Z,10.73
2023-05-02T08:55:44.493Z,12.30
2023-05-02T08:58:14.689Z,11.70
2023-05-02T09:00:44.077Z,11.90
2023-05-02T09:03:23.757Z,12.33
2023-05-02T09:05:54.676Z,11.43
2023-05-02T09:08:25.988Z,12.77
2023-05-02T09:10:53.957Z,12.07
2023-05-02T09:13:32.928Z,13.03
2023-05-02T09:16:03.078Z,12.40
2023-05-02T09:18:34.399Z,12.50
2023-05-02T09:21:06.358Z,11.90
2023-05-02T09:23:35.520Z,11.50
2023-05-02T09:26:11.574Z,10.97
2023-05-02T09:28:41.059Z,11.60
2023-05-02T09:31:10.542Z,11.13
2023-05-02T09:33:40.527Z,12.37
2023-05-02T09:36:09.829Z,11.63
2023-05-02T09:38:39.842Z,11.67
2023-05-02T09:41:07.812Z,12.43
2023-05-02T09:43:35.704Z,11.97
2023-05-02T09:46:05.198Z,11.57
2023-05-02T09:48:34.494Z,10.77
2023-05-02T09:51:04.731Z,11.30
2023-05-02T09:53:32.751Z,10.07
2023-05-02T09:56:02.053Z,10.40
2023-05-02T09:58:30.931Z,11.60
2023-05-02T10:00:59.886Z,11.60
2023-05-02T10:03:28.962Z,10.10
2023-05-02T10:06:00.523Z,11.17
2023-05-02T10:08:30.073Z,11.30
2023-05-02T10:10:59.381Z,11.07
2023-05-02T10:13:32.255Z,11.60
2023-05-02T10:16:01.949Z,10.83
2023-05-02T10:18:39.787Z,10.83
2023-05-02T10:21:11.360Z,11.57
2023-05-02T10:23:43.711Z,10.90
2023-05-02T10:26:15.690Z,10.30
2023-05-02T10:28:43.938Z,9.93
2023-05-02T10:31:12.413Z,10.17
2023-05-02T10:33:41.060Z,10.93
2023-05-02T10:36:12.991Z,10.17
2023-05-02T10:38:43.197Z,10.33
2023-05-02T10:41:15.221Z,9.50
2023-05-02T10:43:49.117Z,10.90
2023-05-02T10:46:33.613Z,10.03
2023-05-02T10:49:02.929Z,9.50
2023-05-02T10:51:32.416Z,9.40
2023-05-02T10:54:24.039Z,9.30
2023-05-02T10:57:04.168Z,10.90
2023-05-02T10:59:33.488Z,9.07
2023-05-02T11:02:01.590Z,9.97
2023-05-02T11:05:00.162Z,9.47
2023-05-02T11:07:28.461Z,9.77
2023-05-02T11:10:26.190Z,10.47
2023-05-02T11:12:54.563Z,10.10
2023-05-02T11:15:55.968Z,9.73
2023-05-02T11:18:24.085Z,9.87
2023-05-02T11:20:51.893Z,10.07
2023-05-02T11:23:27.622Z,11.03
2023-05-02T11:26:00.362Z,9.73
2023-05-02T11:28:42.372Z,9.83
2023-05-02T11:31:11.195Z,10.20
2023-05-02T11:33:39.085Z,10.10
2023-05-02T11:36:07.103Z,9.90
2023-05-02T11:38:39.338Z,9.47
2023-05-02T11:41:08.552Z,10.23
2023-05-02T11:43:36.349Z,10.57
2023-05-02T11:46:05.939Z,9.80
2023-05-02T11:48:34.025Z,9.83
2023-05-02T11:51:05.047Z,9.20
2023-05-02T11:53:33.613Z,10.17
2023-05-02T11:56:02.943Z,9.23
2023-05-02T11:58:33.787Z,9.77
2023-05-02T12:01:14.088Z,10.37
2023-05-02T12:03:42.574Z,10.73
2023-05-02T12:06:12.445Z,10.33
2023-05-02T12:08:40.984Z,9.87
2023-05-02T12:11:09.203Z,10.00
2023-05-02T12:13:46.624Z,10.93
2023-05-02T12:16:14.879Z,9.43
2023-05-02T12:18:43.103Z,10.43
2023-05-02T12:21:11.218Z,10.83
2023-05-02T12:23:42.386Z,10.53
2023-05-02T12:26:20.342Z,9.47
2023-05-02T12:28:54.793Z,9.17
2023-05-02T12:31:23.674Z,9.37
2023-05-02T12:33:52.582Z,8.80
2023-05-02T12:36:20.624Z,9.43
2023-05-02T12:38:53.162Z,10.27
2023-05-02T12:41:35.035Z,8.60
2023-05-02T12:44:04.797Z,9.47
2023-05-02T12:46:33.043Z,10.10
2023-05-02T12:49:05.849Z,9.83
2023-05-02T12:51:34.567Z,9.33
2023-05-02T12:54:02.617Z,9.43
2023-05-02T12:56:32.517Z,8.53
2023-05-02T12:59:04.848Z,8.63
2023-05-02T13:01:35.586Z,9.23
2023-05-02T13:04:03.866Z,8.60
2023-05-02T13:06:32.183Z,8.33
2023-05-02T13:09:00.138Z,7.90
2023-05-02T13:11:28.232Z,7.73
2023-05-02T13:13:56.537Z,8.13
2023-05-02T13:16:25.938Z,8.33
2023-05-02T13:18:55.329Z,8.60
2023-05-02T13:21:23.469Z,7.33
2023-05-02T13:23:52.252Z,8.70
2023-05-02T13:26:20.031Z,6.83
2023-05-02T13:28:47.861Z,7.23
2023-05-02T13:31:15.743Z,7.00
2023-05-02T13:33:43.622Z,7.10
2023-05-02T13:36:12.754Z,7.20
2023-05-02T13:38:41.067Z,6.80
2023-05-02T13:41:08.866Z,6.87
2023-05-02T13:43:36.656Z,6.70
2023-05-02T13:46:04.495Z,6.03
2023-05-02T13:48:32.425Z,6.53
2023-05-02T13:51:00.194Z,6.43
2023-05-02T13:53:29.690Z,7.13
2023-05-02T13:55:57.493Z,7.20
2023-05-02T13:58:25.302Z,7.00
2023-05-02T14:00:53.223Z,6.70
2023-05-02T14:03:21.231Z,6.63
2023-05-02T14:05:49.151Z,6.60
2023-05-02T14:08:18.518Z,5.97
2023-05-02T14:10:47.753Z,6.03
2023-05-02T14:13:15.695Z,6.90
2023-05-02T14:15:43.575Z,5.70
2023-05-02T14:18:11.407Z,5.73
2023-05-02T14:20:39.254Z,8.40
2023-05-02T14:23:07.669Z,8.63
2023-05-02T14:25:36.466Z,8.10
2023-05-02T14:28:06.199Z,9.27
2023-05-02T14:30:33.995Z,9.40
2023-05-02T14:33:01.860Z,8.87
2023-05-02T14:35:29.685Z,9.10
2023-05-02T14:37:57.504Z,8.23
2023-05-02T14:40:25.346Z,8.70
2023-05-02T14:42:53.119Z,8.97
2023-05-02T14:45:22.464Z,9.13
2023-05-02T14:47:50.514Z,8.10
2023-05-02T14:50:18.579Z,9.83
2023-05-02T14:52:47.178Z,9.80
2023-05-02T14:55:14.987Z,10.10
2023-05-02T14:57:42.905Z,8.93
2023-05-02T15:00:11.759Z,9.37
2023-05-02T15:02:41.368Z,9.47
2023-05-02T15:05:12.302Z,9.30
2023-05-02T15:07:40.633Z,9.43
2023-05-02T15:10:10.314Z,10.33
2023-05-02T15:12:38.134Z,10.07
2023-05-02T15:15:06.790Z,10.13
2023-05-02T15:17:34.608Z,10.03
2023-05-02T15:20:04.254Z,11.13
2023-05-02T15:22:32.343Z,9.60
2023-05-02T15:25:00.508Z,10.53
2023-05-02T15:27:29.043Z,10.10
2023-05-02T15:29:56.846Z,9.97
2023-05-02T15:32:24.687Z,9.83
2023-05-02T15:34:52.537Z,9.23
2023-05-02T15:37:21.682Z,10.70
2023-05-02T15:39:50.590Z,9.50
2023-05-02T15:42:18.400Z,9.00
2023-05-02T15:44:46.220Z,10.97
2023-05-02T15:47:14.035Z,10.47
2023-05-02T15:49:42.374Z,10.00
2023-05-02T15:52:10.235Z,9.90
2023-05-02T15:54:39.393Z,8.50
2023-05-02T15:57:07.557Z,9.57
2023-05-02T15:59:35.384Z,11.17
2023-05-02T16:02:03.246Z,10.47
2023-05-02T16:04:32.162Z,10.43
2023-05-02T16:07:00.007Z,11.13
2023-05-02T16:09:28.300Z,10.13
2023-05-02T16:11:57.880Z,9.70
2023-05-02T16:14:26.583Z,10.60
2023-05-02T16:16:56.705Z,10.10
2023-05-02T16:19:24.684Z,8.43
2023-05-02T16:21:52.576Z,8.53
2023-05-02T16:24:20.494Z,7.37
2023-05-02T16:26:48.322Z,8.13
2023-05-02T16:29:17.464Z,7.93
2023-05-02T16:31:45.390Z,7.63
2023-05-02T16:34:13.268Z,7.40
2023-05-02T16:36:41.212Z,7.67
2023-05-02T16:39:09.309Z,7.77
2023-05-02T16:41:37.128Z,6.93
2023-05-02T16:44:05.106Z,6.70
2023-05-02T16:46:34.563Z,7.07
2023-05-02T16:49:02.383Z,6.53
2023-05-02T16:51:31.350Z,7.67
2023-05-02T16:53:59.205Z,6.47
2023-05-02T16:56:27.146Z,7.00
2023-05-02T16:58:55.440Z,7.00
2023-05-02T17:01:23.671Z,7.00
2023-05-02T17:03:52.907Z,7.50
2023-05-02T17:06:20.895Z,7.23
2023-05-02T17:08:48.712Z,6.73
2023-05-02T17:11:17.355Z,6.03
2023-05-02T17:13:47.116Z,5.87
2023-05-02T17:16:15.248Z,6.07
2023-05-02T17:18:43.089Z,5.63
2023-05-02T17:21:12.587Z,5.07
2023-05-02T17:23:40.496Z,5.70
2023-05-02T17:26:14.154Z,5.10
2023-05-02T17:28:42.102Z,5.63
2023-05-02T17:31:10.070Z,5.50
2023-05-02T17:33:38.266Z,5.37
2023-05-02T17:36:06.888Z,5.03
2023-05-02T17:38:36.047Z,5.43
2023-05-02T17:41:04.007Z,5.20
2023-05-02T17:43:32.037Z,4.90
2023-05-02T17:45:59.948Z,5.00
2023-05-02T17:48:27.776Z,5.30
2023-05-02T17:50:55.989Z,4.70
2023-05-02T17:53:24.389Z,4.67
2023-05-02T17:55:53.564Z,4.43
2023-05-02T17:58:21.400Z,4.73
2023-05-02T18:00:49.251Z,3.83
2023-05-02T18:03:17.319Z,3.50
2023-05-02T18:05:47.312Z,3.70
2023-05-02T18:08:15.818Z,3.63
2023-05-02T18:10:44.315Z,4.00
2023-05-02T18:13:13.473Z,3.37
2023-05-02T18:15:41.271Z,3.60
2023-05-02T18:18:09.218Z,3.93
2023-05-02T18:20:39.991Z,3.63
2023-05-02T18:23:07.838Z,3.40
2023-05-02T18:25:35.853Z,3.40
2023-05-02T18:28:04.053Z,3.30
2023-05-02T18:30:36.504Z,3.00
2023-05-02T18:33:04.418Z,3.23
2023-05-02T18:35:32.387Z,3.37
2023-05-02T18:38:00.404Z,3.27
2023-05-02T18:40:28.314Z,3.93
2023-05-02T18:42:56.116Z,3.60
2023-05-02T18:45:23.908Z,3.30
2023-05-02T18:47:53.116Z,3.10
2023-05-02T18:50:21.312Z,3.20
2023-05-02T18:52:49.155Z,4.60
2023-05-02T18:55:17.049Z,4.70
2023-05-02T18:57:45.282Z,4.93
2023-05-02T19:00:13.988Z,6.17
2023-05-02T19:02:41.903Z,5.80
2023-05-02T19:05:11.716Z,7.90
2023-05-02T19:07:39.963Z,4.10
2023-05-02T19:10:08.481Z,4.23
2023-05-02T19:12:36.278Z,3.70
2023-05-02T19:15:05.061Z,4.27
2023-05-02T19:17:33.293Z,4.53
2023-05-02T19:20:01.279Z,4.40
2023-05-02T19:22:32.159Z,4.17
2023-05-02T19:25:00.937Z,4.77
2023-05-02T19:27:28.955Z,4.47
2023-05-02T19:29:58.118Z,4.10
2023-05-02T19:32:26.112Z,5.33
2023-05-02T19:34:54.467Z,4.67
2023-05-02T19:37:22.302Z,5.87
2023-05-02T19:39:51.474Z,5.20
2023-05-02T19:42:19.269Z,4.93
2023-05-02T19:44:48.075Z,4.60
2023-05-02T19:47:15.880Z,4.90
2023-05-02T19:49:44.043Z,4.17
2023-05-02T19:52:11.943Z,4.60
2023-05-02T19:54:39.837Z,4.20
2023-05-02T19:57:09.041Z,4.27
2023-05-02T19:59:36.854Z,4.60
2023-05-02T20:02:04.777Z,4.27
2023-05-02T20:04:32.704Z,4.10
2023-05-02T20:07:00.481Z,5.30
2023-05-02T20:09:29.615Z,5.67
2023-05-02T20:11:57.435Z,5.87
2023-05-02T20:14:26.589Z,5.63
2023-05-02T20:17:01.359Z,4.77
2023-05-02T20:19:32.218Z,4.43
2023-05-02T20:22:00.095Z,4.10
2023-05-02T20:24:28.094Z,4.10
2023-05-02T20:26:55.924Z,4.37
2023-05-02T20:29:23.988Z,4.60
2023-05-02T20:31:54.487Z,4.47
2023-05-02T20:34:24.161Z,5.00
2023-05-02T20:36:52.541Z,4.77
2023-05-02T20:39:21.707Z,5.03
2023-05-02T20:41:49.933Z,4.80
2023-05-02T20:44:18.685Z,4.07
2023-05-02T20:46:46.513Z,4.50
2023-05-02T20:49:15.730Z,4.23
2023-05-02T20:51:43.549Z,4.50
2023-05-02T20:54:11.412Z,4.43
2023-05-02T20:56:39.220Z,3.63
2023-05-02T20:59:07.315Z,4.87
2023-05-02T21:01:35.337Z,4.33
2023-05-02T21:04:04.585Z,4.60
2023-05-02T21:06:33.978Z,5.57
2023-05-02T21:09:02.260Z,5.50
2023-05-02T21:11:30.296Z,5.83
2023-05-02T21:13:58.095Z,5.20
2023-05-02T21:16:26.072Z,3.63
2023-05-02T21:18:54.947Z,3.57
2023-05-02T21:21:24.070Z,3.13
2023-05-02T21:23:53.232Z,3.07
2023-05-02T21:26:21.053Z,3.30
2023-05-02T21:28:48.836Z,2.77
2023-05-02T21:31:16.956Z,3.00
2023-05-02T21:33:44.920Z,8.37
2023-05-02T21:36:12.715Z,8.10
2023-05-02T21:38:40.549Z,4.10
2023-05-02T21:41:10.052Z,3.90
2023-05-02T21:43:40.514Z,4.73
2023-05-02T21:46:08.408Z,4.90
2023-05-02T21:48:36.231Z,4.63
2023-05-02T21:51:08.303Z,3.50
2023-05-02T21:53:36.172Z,3.43
2023-05-02T21:56:04.028Z,3.53
2023-05-02T21:58:33.228Z,3.27
2023-05-02T22:01:01.439Z,2.67
2023-05-02T22:03:30.144Z,2.90
2023-05-02T22:06:00.917Z,2.87
2023-05-02T22:08:28.802Z,2.57
2023-05-02T22:10:58.477Z,2.93
2023-05-02T22:13:26.904Z,3.40
2023-05-02T22:15:56.067Z,3.33
2023-05-02T22:18:23.878Z,3.53
2023-05-02T22:20:51.698Z,3.50
2023-05-02T22:23:19.548Z,2.97
2023-05-02T22:25:47.377Z,3.43
2023-05-02T22:28:15.213Z,2.93
2023-05-02T22:30:43.781Z,3.13
2023-05-02T22:33:14.110Z,3.90
2023-05-02T22:35:42.074Z,3.67
2023-05-02T22:38:10.023Z,3.43
2023-05-02T22:40:37.822Z,3.77
2023-05-02T22:43:05.701Z,4.27
2023-05-02T22:45:33.868Z,4.20
2023-05-02T22:48:01.794Z,3.57
2023-05-02T22:50:31.921Z,4.37
2023-05-02T22:53:00.172Z,4.10
2023-05-02T22:55:27.982Z,4.33
2023-05-02T22:57:55.822Z,3.90
2023-05-02T23:00:23.912Z,4.30
2023-05-02T23:05:19.728Z,4.20
2023-05-02T23:07:49.614Z,4.17
2023-05-02T23:10:17.618Z,3.90
2023-05-02T23:12:45.455Z,3.87
2023-05-02T23:15:13.317Z,3.77
2023-05-02T23:17:41.987Z,3.80
2023-05-02T23:20:11.344Z,4.20
2023-05-02T23:22:44.919Z,3.60
2023-05-02T23:25:15.659Z,4.80
2023-05-02T23:27:43.568Z,4.97
2023-05-02T23:30:12.341Z,4.07
2023-05-02T23:32:40.381Z,3.40
2023-05-02T23:35:09.332Z,3.60
2023-05-02T23:37:37.154Z,3.60
2023-05-02T23:40:05.950Z,3.37
2023-05-02T23:42:35.961Z,3.00
2023-05-02T23:45:03.846Z,3.87
2023-05-02T23:47:31.641Z,3.00
2023-05-02T23:49:59.509Z,3.53
2023-05-02T23:52:27.559Z,3.43
2023-05-02T23:54:55.463Z,3.30
2023-05-02T23:57:23.670Z,3.20
2023-05-02T23:59:53.519Z,3.20
